sensor_id;sensor_type;location;lat;lon;timestamp;P1;durP1;ratioP1;P2;durP2;ratioP2
71253;SDS011;59019;47.638;18.966;2023-05-13T00:00:35;11.85;;;7.25;;
71253;SDS011;59019;47.638;18.966;2023-05-13T00:03:01;10.88;;;6.85;;
71253;SDS011;59019;47.638;18.966;2023-05-13T00:05:26;10.83;;;6.80;;
71253;SDS011;59019;47.638;18.966;2023-05-13T00:07:52;11.23;;;6.50;;
71253;SDS011;59019;47.638;18.966;2023-05-13T00:10:17;10.38;;;6.50;;
71253;SDS011;59019;47.638;18.966;2023-05-13T00:12:44;11.60;;;7.07;;
71253;SDS011;59019;47.638;18.966;2023-05-13T00:15:10;12.73;;;6.20;;
71253;SDS011;59019;47.638;18.966;2023-05-13T00:17:36;10.38;;;6.55;;
71253;SDS011;59019;47.638;18.966;2023-05-13T00:20:01;11.80;;;6.23;;
71253;SDS011;59019;47.638;18.966;2023-05-13T00:22:27;10.77;;;6.70;;
71253;SDS011;59019;47.638;18.966;2023-05-13T00:24:53;11.17;;;6.27;;
71253;SDS011;59019;47.638;18.966;2023-05-13T00:27:18;10.05;;;6.40;;
71253;SDS011;59019;47.638;18.966;2023-05-13T00:29:44;11.18;;;6.10;;
71253;SDS011;59019;47.638;18.966;2023-05-13T00:32:09;10.30;;;6.17;;
71253;SDS011;59019;47.638;18.966;2023-05-13T00:34:35;11.00;;;6.50;;
71253;SDS011;59019;47.638;18.966;2023-05-13T00:37:01;9.18;;;6.22;;
71253;SDS011;59019;47.638;18.966;2023-05-13T00:39:26;11.27;;;6.13;;
71253;SDS011;59019;47.638;18.966;2023-05-13T00:41:52;9.68;;;6.30;;
71253;SDS011;59019;47.638;18.966;2023-05-13T00:44:18;9.83;;;5.33;;
71253;SDS011;59019;47.638;18.966;2023-05-13T00:46:44;11.30;;;6.47;;
71253;SDS011;59019;47.638;18.966;2023-05-13T00:49:10;10.97;;;6.40;;
71253;SDS011;59019;47.638;18.966;2023-05-13T00:51:35;9.65;;;5.93;;
71253;SDS011;59019;47.638;18.966;2023-05-13T00:54:01;10.27;;;6.20;;
71253;SDS011;59019;47.638;18.966;2023-05-13T00:56:26;9.13;;;5.75;;
71253;SDS011;59019;47.638;18.966;2023-05-13T00:58:52;10.63;;;6.60;;
71253;SDS011;59019;47.638;18.966;2023-05-13T01:04:22;10.23;;;6.18;;
71253;SDS011;59019;47.638;18.966;2023-05-13T01:12:33;12.67;;;6.77;;
71253;SDS011;59019;47.638;18.966;2023-05-13T01:15:03;10.70;;;6.82;;
71253;SDS011;59019;47.638;18.966;2023-05-13T01:20:26;12.27;;;6.95;;
71253;SDS011;59019;47.638;18.966;2023-05-13T01:22:52;10.10;;;5.78;;
71253;SDS011;59019;47.638;18.966;2023-05-13T01:25:18;12.33;;;6.97;;
71253;SDS011;59019;47.638;18.966;2023-05-13T01:27:44;10.38;;;6.32;;
71253;SDS011;59019;47.638;18.966;2023-05-13T01:30:10;10.60;;;6.30;;
71253;SDS011;59019;47.638;18.966;2023-05-13T01:32:36;10.63;;;6.20;;
71253;SDS011;59019;47.638;18.966;2023-05-13T01:35:02;12.35;;;6.85;;
71253;SDS011;59019;47.638;18.966;2023-05-13T01:37:29;11.93;;;6.93;;
71253;SDS011;59019;47.638;18.966;2023-05-13T01:39:55;10.68;;;6.55;;
71253;SDS011;59019;47.638;18.966;2023-05-13T01:42:22;11.90;;;6.70;;
71253;SDS011;59019;47.638;18.966;2023-05-13T01:44:48;9.98;;;6.10;;
71253;SDS011;59019;47.638;18.966;2023-05-13T01:47:15;10.10;;;6.20;;
71253;SDS011;59019;47.638;18.966;2023-05-13T01:49:41;11.43;;;6.47;;
71253;SDS011;59019;47.638;18.966;2023-05-13T01:52:06;10.30;;;6.23;;
71253;SDS011;59019;47.638;18.966;2023-05-13T01:54:32;10.05;;;6.25;;
71253;SDS011;59019;47.638;18.966;2023-05-13T01:56:57;10.05;;;6.13;;
71253;SDS011;59019;47.638;18.966;2023-05-13T01:59:23;8.70;;;5.87;;
71253;SDS011;59019;47.638;18.966;2023-05-13T02:01:49;9.80;;;5.97;;
71253;SDS011;59019;47.638;18.966;2023-05-13T02:04:14;9.45;;;5.93;;
71253;SDS011;59019;47.638;18.966;2023-05-13T02:06:39;10.13;;;6.27;;
71253;SDS011;59019;47.638;18.966;2023-05-13T02:09:05;8.10;;;5.50;;
71253;SDS011;59019;47.638;18.966;2023-05-13T02:11:30;10.43;;;5.80;;
71253;SDS011;59019;47.638;18.966;2023-05-13T02:13:56;10.93;;;6.07;;
71253;SDS011;59019;47.638;18.966;2023-05-13T02:16:21;8.75;;;5.60;;
71253;SDS011;59019;47.638;18.966;2023-05-13T02:18:47;9.00;;;5.20;;
71253;SDS011;59019;47.638;18.966;2023-05-13T02:21:12;8.03;;;5.23;;
71253;SDS011;59019;47.638;18.966;2023-05-13T02:23:38;8.83;;;5.70;;
71253;SDS011;59019;47.638;18.966;2023-05-13T02:26:03;8.90;;;5.57;;
71253;SDS011;59019;47.638;18.966;2023-05-13T02:28:29;10.00;;;5.97;;
71253;SDS011;59019;47.638;18.966;2023-05-13T02:30:55;9.48;;;5.88;;
71253;SDS011;59019;47.638;18.966;2023-05-13T02:33:20;8.80;;;5.33;;
71253;SDS011;59019;47.638;18.966;2023-05-13T02:35:46;9.48;;;6.10;;
71253;SDS011;59019;47.638;18.966;2023-05-13T02:38:12;11.00;;;5.78;;
71253;SDS011;59019;47.638;18.966;2023-05-13T02:40:37;9.80;;;5.73;;
71253;SDS011;59019;47.638;18.966;2023-05-13T02:43:03;10.95;;;5.80;;
71253;SDS011;59019;47.638;18.966;2023-05-13T02:45:29;9.67;;;5.90;;
71253;SDS011;59019;47.638;18.966;2023-05-13T02:47:54;8.90;;;5.80;;
71253;SDS011;59019;47.638;18.966;2023-05-13T02:50:20;11.20;;;5.78;;
71253;SDS011;59019;47.638;18.966;2023-05-13T02:52:45;9.80;;;5.70;;
71253;SDS011;59019;47.638;18.966;2023-05-13T02:55:11;9.63;;;5.53;;
71253;SDS011;59019;47.638;18.966;2023-05-13T02:57:36;8.65;;;5.60;;
71253;SDS011;59019;47.638;18.966;2023-05-13T03:00:02;7.97;;;4.77;;
71253;SDS011;59019;47.638;18.966;2023-05-13T03:02:29;8.27;;;5.10;;
71253;SDS011;59019;47.638;18.966;2023-05-13T03:04:55;8.70;;;5.40;;
71253;SDS011;59019;47.638;18.966;2023-05-13T03:07:22;8.70;;;5.25;;
71253;SDS011;59019;47.638;18.966;2023-05-13T03:09:48;8.63;;;5.27;;
71253;SDS011;59019;47.638;18.966;2023-05-13T03:12:14;10.00;;;6.00;;
71253;SDS011;59019;47.638;18.966;2023-05-13T03:14:39;9.93;;;5.30;;
71253;SDS011;59019;47.638;18.966;2023-05-13T03:17:07;10.18;;;5.85;;
71253;SDS011;59019;47.638;18.966;2023-05-13T03:19:34;8.25;;;5.35;;
71253;SDS011;59019;47.638;18.966;2023-05-13T03:22:00;8.17;;;5.10;;
71253;SDS011;59019;47.638;18.966;2023-05-13T03:24:26;8.48;;;5.00;;
71253;SDS011;59019;47.638;18.966;2023-05-13T03:26:53;8.33;;;5.00;;
71253;SDS011;59019;47.638;18.966;2023-05-13T03:29:19;8.90;;;5.53;;
71253;SDS011;59019;47.638;18.966;2023-05-13T03:31:44;9.60;;;5.50;;
71253;SDS011;59019;47.638;18.966;2023-05-13T03:34:10;8.87;;;5.30;;
71253;SDS011;59019;47.638;18.966;2023-05-13T03:36:36;8.90;;;5.30;;
71253;SDS011;59019;47.638;18.966;2023-05-13T03:39:01;10.93;;;5.77;;
71253;SDS011;59019;47.638;18.966;2023-05-13T03:41:27;8.95;;;5.55;;
71253;SDS011;59019;47.638;18.966;2023-05-13T03:43:53;8.10;;;5.03;;
71253;SDS011;59019;47.638;18.966;2023-05-13T03:46:18;9.68;;;5.30;;
71253;SDS011;59019;47.638;18.966;2023-05-13T03:48:45;10.35;;;5.40;;
71253;SDS011;59019;47.638;18.966;2023-05-13T03:51:10;9.13;;;5.70;;
71253;SDS011;59019;47.638;18.966;2023-05-13T03:53:36;10.07;;;5.40;;
71253;SDS011;59019;47.638;18.966;2023-05-13T03:56:01;9.37;;;5.63;;
71253;SDS011;59019;47.638;18.966;2023-05-13T03:58:27;10.73;;;5.28;;
71253;SDS011;59019;47.638;18.966;2023-05-13T04:00:53;8.90;;;5.83;;
71253;SDS011;59019;47.638;18.966;2023-05-13T04:03:19;9.13;;;5.60;;
71253;SDS011;59019;47.638;18.966;2023-05-13T04:05:44;10.13;;;5.57;;
71253;SDS011;59019;47.638;18.966;2023-05-13T04:08:11;9.90;;;5.25;;
71253;SDS011;59019;47.638;18.966;2023-05-13T04:10:36;8.73;;;5.30;;
71253;SDS011;59019;47.638;18.966;2023-05-13T04:13:02;9.13;;;5.00;;
71253;SDS011;59019;47.638;18.966;2023-05-13T04:15:28;8.70;;;5.07;;
71253;SDS011;59019;47.638;18.966;2023-05-13T04:17:55;8.93;;;5.13;;
71253;SDS011;59019;47.638;18.966;2023-05-13T04:20:21;9.88;;;5.55;;
71253;SDS011;59019;47.638;18.966;2023-05-13T04:22:47;11.07;;;5.70;;
71253;SDS011;59019;47.638;18.966;2023-05-13T04:25:13;10.77;;;5.63;;
71253;SDS011;59019;47.638;18.966;2023-05-13T04:27:38;8.18;;;5.05;;
71253;SDS011;59019;47.638;18.966;2023-05-13T04:30:04;9.52;;;5.38;;
71253;SDS011;59019;47.638;18.966;2023-05-13T04:32:30;8.52;;;5.35;;
71253;SDS011;59019;47.638;18.966;2023-05-13T04:34:56;8.90;;;5.00;;
71253;SDS011;59019;47.638;18.966;2023-05-13T04:37:21;8.07;;;4.97;;
71253;SDS011;59019;47.638;18.966;2023-05-13T04:39:47;10.25;;;5.47;;
71253;SDS011;59019;47.638;18.966;2023-05-13T04:42:13;9.47;;;5.60;;
71253;SDS011;59019;47.638;18.966;2023-05-13T04:44:39;10.52;;;5.65;;
71253;SDS011;59019;47.638;18.966;2023-05-13T04:47:05;10.87;;;6.27;;
71253;SDS011;59019;47.638;18.966;2023-05-13T04:49:30;10.90;;;5.70;;
71253;SDS011;59019;47.638;18.966;2023-05-13T04:51:56;9.40;;;5.70;;
71253;SDS011;59019;47.638;18.966;2023-05-13T04:54:22;8.25;;;4.80;;
71253;SDS011;59019;47.638;18.966;2023-05-13T04:56:48;9.23;;;5.75;;
71253;SDS011;59019;47.638;18.966;2023-05-13T04:59:15;8.95;;;5.70;;
71253;SDS011;59019;47.638;18.966;2023-05-13T05:01:40;9.47;;;5.03;;
71253;SDS011;59019;47.638;18.966;2023-05-13T05:04:06;10.20;;;5.60;;
71253;SDS011;59019;47.638;18.966;2023-05-13T05:06:31;9.03;;;5.27;;
71253;SDS011;59019;47.638;18.966;2023-05-13T05:08:57;8.45;;;4.85;;
71253;SDS011;59019;47.638;18.966;2023-05-13T05:11:23;8.35;;;4.97;;
71253;SDS011;59019;47.638;18.966;2023-05-13T05:13:49;9.38;;;5.35;;
71253;SDS011;59019;47.638;18.966;2023-05-13T05:16:14;8.63;;;5.13;;
71253;SDS011;59019;47.638;18.966;2023-05-13T05:18:40;9.73;;;5.50;;
71253;SDS011;59019;47.638;18.966;2023-05-13T05:21:07;7.80;;;4.85;;
71253;SDS011;59019;47.638;18.966;2023-05-13T05:23:33;10.40;;;5.97;;
71253;SDS011;59019;47.638;18.966;2023-05-13T05:25:59;9.20;;;5.28;;
71253;SDS011;59019;47.638;18.966;2023-05-13T05:28:25;8.82;;;5.00;;
71253;SDS011;59019;47.638;18.966;2023-05-13T05:30:51;8.60;;;5.13;;
71253;SDS011;59019;47.638;18.966;2023-05-13T05:33:17;8.63;;;5.10;;
71253;SDS011;59019;47.638;18.966;2023-05-13T05:35:43;7.67;;;4.77;;
71253;SDS011;59019;47.638;18.966;2023-05-13T05:38:09;8.00;;;5.18;;
71253;SDS011;59019;47.638;18.966;2023-05-13T05:40:37;10.77;;;5.93;;
71253;SDS011;59019;47.638;18.966;2023-05-13T05:43:05;8.33;;;5.20;;
71253;SDS011;59019;47.638;18.966;2023-05-13T05:45:31;8.52;;;4.70;;
71253;SDS011;59019;47.638;18.966;2023-05-13T05:47:58;8.18;;;4.97;;
71253;SDS011;59019;47.638;18.966;2023-05-13T05:50:24;7.30;;;4.70;;
71253;SDS011;59019;47.638;18.966;2023-05-13T05:52:49;8.88;;;5.30;;
71253;SDS011;59019;47.638;18.966;2023-05-13T05:55:15;8.00;;;5.13;;
71253;SDS011;59019;47.638;18.966;2023-05-13T05:57:40;7.97;;;5.30;;
71253;SDS011;59019;47.638;18.966;2023-05-13T06:00:06;9.57;;;5.60;;
71253;SDS011;59019;47.638;18.966;2023-05-13T06:02:32;9.07;;;5.13;;
71253;SDS011;59019;47.638;18.966;2023-05-13T06:04:58;9.00;;;5.40;;
71253;SDS011;59019;47.638;18.966;2023-05-13T06:07:23;9.30;;;5.68;;
71253;SDS011;59019;47.638;18.966;2023-05-13T06:09:49;10.27;;;5.30;;
71253;SDS011;59019;47.638;18.966;2023-05-13T06:12:14;10.83;;;6.60;;
71253;SDS011;59019;47.638;18.966;2023-05-13T06:14:40;11.00;;;6.75;;
71253;SDS011;59019;47.638;18.966;2023-05-13T06:17:05;10.10;;;6.13;;
71253;SDS011;59019;47.638;18.966;2023-05-13T06:19:31;9.47;;;6.23;;
71253;SDS011;59019;47.638;18.966;2023-05-13T06:21:56;10.45;;;6.88;;
71253;SDS011;59019;47.638;18.966;2023-05-13T06:24:22;9.68;;;6.72;;
71253;SDS011;59019;47.638;18.966;2023-05-13T06:26:47;10.23;;;6.57;;
71253;SDS011;59019;47.638;18.966;2023-05-13T06:29:13;10.53;;;6.90;;
71253;SDS011;59019;47.638;18.966;2023-05-13T06:31:38;9.98;;;6.22;;
71253;SDS011;59019;47.638;18.966;2023-05-13T06:34:04;13.53;;;7.33;;
71253;SDS011;59019;47.638;18.966;2023-05-13T06:36:29;11.80;;;7.10;;
71253;SDS011;59019;47.638;18.966;2023-05-13T06:38:55;10.88;;;6.50;;
71253;SDS011;59019;47.638;18.966;2023-05-13T06:41:21;10.67;;;6.60;;
71253;SDS011;59019;47.638;18.966;2023-05-13T06:43:47;11.32;;;6.07;;
71253;SDS011;59019;47.638;18.966;2023-05-13T06:46:13;11.65;;;7.65;;
71253;SDS011;59019;47.638;18.966;2023-05-13T06:48:39;10.05;;;6.45;;
71253;SDS011;59019;47.638;18.966;2023-05-13T06:51:04;9.90;;;6.57;;
71253;SDS011;59019;47.638;18.966;2023-05-13T06:53:30;11.32;;;6.35;;
71253;SDS011;59019;47.638;18.966;2023-05-13T06:55:58;10.55;;;6.72;;
71253;SDS011;59019;47.638;18.966;2023-05-13T06:58:23;10.18;;;5.93;;
71253;SDS011;59019;47.638;18.966;2023-05-13T07:00:49;9.65;;;6.25;;
71253;SDS011;59019;47.638;18.966;2023-05-13T07:03:14;9.93;;;6.00;;
71253;SDS011;59019;47.638;18.966;2023-05-13T07:05:41;9.85;;;6.25;;
71253;SDS011;59019;47.638;18.966;2023-05-13T07:08:07;10.00;;;5.63;;
71253;SDS011;59019;47.638;18.966;2023-05-13T07:10:33;8.87;;;5.37;;
71253;SDS011;59019;47.638;18.966;2023-05-13T07:13:00;10.25;;;5.50;;
71253;SDS011;59019;47.638;18.966;2023-05-13T07:15:26;9.77;;;5.47;;
71253;SDS011;59019;47.638;18.966;2023-05-13T07:17:52;9.47;;;5.63;;
71253;SDS011;59019;47.638;18.966;2023-05-13T07:20:18;9.13;;;5.50;;
71253;SDS011;59019;47.638;18.966;2023-05-13T07:22:49;10.23;;;6.38;;
71253;SDS011;59019;47.638;18.966;2023-05-13T07:25:15;8.73;;;5.07;;
71253;SDS011;59019;47.638;18.966;2023-05-13T07:27:41;8.68;;;5.45;;
71253;SDS011;59019;47.638;18.966;2023-05-13T07:30:07;9.50;;;5.85;;
71253;SDS011;59019;47.638;18.966;2023-05-13T07:32:34;9.93;;;5.53;;
71253;SDS011;59019;47.638;18.966;2023-05-13T07:35:01;8.85;;;5.70;;
71253;SDS011;59019;47.638;18.966;2023-05-13T07:37:27;10.05;;;5.68;;
71253;SDS011;59019;47.638;18.966;2023-05-13T07:39:53;8.63;;;5.77;;
71253;SDS011;59019;47.638;18.966;2023-05-13T07:42:18;9.55;;;5.50;;
71253;SDS011;59019;47.638;18.966;2023-05-13T07:44:44;9.90;;;5.80;;
71253;SDS011;59019;47.638;18.966;2023-05-13T07:47:10;8.73;;;5.30;;
71253;SDS011;59019;47.638;18.966;2023-05-13T07:49:35;10.60;;;6.38;;
71253;SDS011;59019;47.638;18.966;2023-05-13T07:52:01;9.83;;;6.50;;
71253;SDS011;59019;47.638;18.966;2023-05-13T07:54:27;13.03;;;6.67;;
71253;SDS011;59019;47.638;18.966;2023-05-13T07:56:52;13.82;;;8.02;;
71253;SDS011;59019;47.638;18.966;2023-05-13T07:59:18;35.67;;;19.80;;
71253;SDS011;59019;47.638;18.966;2023-05-13T08:01:44;14.95;;;9.20;;
71253;SDS011;59019;47.638;18.966;2023-05-13T08:04:09;12.10;;;7.35;;
71253;SDS011;59019;47.638;18.966;2023-05-13T08:06:35;19.55;;;10.07;;
71253;SDS011;59019;47.638;18.966;2023-05-13T08:09:00;12.93;;;7.30;;
71253;SDS011;59019;47.638;18.966;2023-05-13T08:11:27;11.40;;;6.88;;
71253;SDS011;59019;47.638;18.966;2023-05-13T08:13:52;11.53;;;6.90;;
71253;SDS011;59019;47.638;18.966;2023-05-13T08:16:18;11.13;;;6.72;;
71253;SDS011;59019;47.638;18.966;2023-05-13T08:18:44;11.83;;;6.13;;
71253;SDS011;59019;47.638;18.966;2023-05-13T08:21:09;9.10;;;5.28;;
71253;SDS011;59019;47.638;18.966;2023-05-13T08:23:38;15.33;;;9.50;;
71253;SDS011;59019;47.638;18.966;2023-05-13T08:26:03;16.67;;;10.13;;
71253;SDS011;59019;47.638;18.966;2023-05-13T08:28:29;20.63;;;11.43;;
71253;SDS011;59019;47.638;18.966;2023-05-13T08:30:54;11.77;;;6.20;;
71253;SDS011;59019;47.638;18.966;2023-05-13T08:33:27;11.82;;;8.30;;
71253;SDS011;59019;47.638;18.966;2023-05-13T08:35:53;14.02;;;8.88;;
71253;SDS011;59019;47.638;18.966;2023-05-13T08:38:19;11.47;;;6.53;;
71253;SDS011;59019;47.638;18.966;2023-05-13T08:40:45;8.88;;;5.55;;
71253;SDS011;59019;47.638;18.966;2023-05-13T08:43:10;35.77;;;22.83;;
71253;SDS011;59019;47.638;18.966;2023-05-13T08:45:39;22.67;;;12.90;;
71253;SDS011;59019;47.638;18.966;2023-05-13T08:48:09;12.45;;;6.20;;
71253;SDS011;59019;47.638;18.966;2023-05-13T08:50:36;10.45;;;6.13;;
71253;SDS011;59019;47.638;18.966;2023-05-13T08:53:02;11.05;;;6.30;;
71253;SDS011;59019;47.638;18.966;2023-05-13T08:55:28;9.17;;;5.43;;
71253;SDS011;59019;47.638;18.966;2023-05-13T08:57:54;10.07;;;6.15;;
71253;SDS011;59019;47.638;18.966;2023-05-13T09:00:20;9.43;;;6.10;;
71253;SDS011;59019;47.638;18.966;2023-05-13T09:02:46;13.70;;;6.70;;
71253;SDS011;59019;47.638;18.966;2023-05-13T09:05:11;12.47;;;6.43;;
71253;SDS011;59019;47.638;18.966;2023-05-13T09:07:38;45.85;;;33.38;;
71253;SDS011;59019;47.638;18.966;2023-05-13T09:10:04;41.78;;;31.63;;
71253;SDS011;59019;47.638;18.966;2023-05-13T09:12:50;33.20;;;25.42;;
71253;SDS011;59019;47.638;18.966;2023-05-13T09:15:18;31.55;;;26.80;;
71253;SDS011;59019;47.638;18.966;2023-05-13T09:17:48;10.45;;;6.70;;
71253;SDS011;59019;47.638;18.966;2023-05-13T09:20:17;9.68;;;5.22;;
71253;SDS011;59019;47.638;18.966;2023-05-13T09:22:44;8.77;;;5.53;;
71253;SDS011;59019;47.638;18.966;2023-05-13T09:25:14;8.52;;;5.07;;
71253;SDS011;59019;47.638;18.966;2023-05-13T09:27:42;9.07;;;5.97;;
71253;SDS011;59019;47.638;18.966;2023-05-13T09:30:10;9.32;;;5.13;;
71253;SDS011;59019;47.638;18.966;2023-05-13T09:32:36;7.97;;;4.80;;
71253;SDS011;59019;47.638;18.966;2023-05-13T09:35:13;8.88;;;4.82;;
71253;SDS011;59019;47.638;18.966;2023-05-13T09:37:49;8.45;;;4.65;;
71253;SDS011;59019;47.638;18.966;2023-05-13T09:40:15;8.60;;;4.85;;
71253;SDS011;59019;47.638;18.966;2023-05-13T09:42:43;10.35;;;6.50;;
71253;SDS011;59019;47.638;18.966;2023-05-13T09:45:10;23.37;;;15.53;;
71253;SDS011;59019;47.638;18.966;2023-05-13T09:47:36;10.52;;;6.45;;
71253;SDS011;59019;47.638;18.966;2023-05-13T09:50:02;8.23;;;5.30;;
71253;SDS011;59019;47.638;18.966;2023-05-13T09:52:32;9.43;;;5.75;;
71253;SDS011;59019;47.638;18.966;2023-05-13T09:54:58;23.00;;;11.57;;
71253;SDS011;59019;47.638;18.966;2023-05-13T09:57:27;35.42;;;17.33;;
71253;SDS011;59019;47.638;18.966;2023-05-13T09:59:57;14.95;;;8.27;;
71253;SDS011;59019;47.638;18.966;2023-05-13T10:02:23;9.57;;;5.30;;
71253;SDS011;59019;47.638;18.966;2023-05-13T10:04:51;8.32;;;4.55;;
71253;SDS011;59019;47.638;18.966;2023-05-13T10:07:18;8.47;;;5.20;;
71253;SDS011;59019;47.638;18.966;2023-05-13T10:09:48;9.00;;;4.75;;
71253;SDS011;59019;47.638;18.966;2023-05-13T10:12:19;10.65;;;6.22;;
71253;SDS011;59019;47.638;18.966;2023-05-13T10:14:48;8.85;;;5.18;;
71253;SDS011;59019;47.638;18.966;2023-05-13T10:17:17;7.30;;;4.25;;
71253;SDS011;59019;47.638;18.966;2023-05-13T10:19:44;11.00;;;6.27;;
71253;SDS011;59019;47.638;18.966;2023-05-13T10:22:10;11.50;;;7.00;;
71253;SDS011;59019;47.638;18.966;2023-05-13T10:24:37;7.35;;;4.60;;
71253;SDS011;59019;47.638;18.966;2023-05-13T10:27:05;8.90;;;5.32;;
71253;SDS011;59019;47.638;18.966;2023-05-13T10:29:31;9.20;;;4.97;;
71253;SDS011;59019;47.638;18.966;2023-05-13T10:32:01;8.17;;;4.70;;
71253;SDS011;59019;47.638;18.966;2023-05-13T10:34:28;8.10;;;5.00;;
71253;SDS011;59019;47.638;18.966;2023-05-13T10:44:41;9.15;;;4.90;;
71253;SDS011;59019;47.638;18.966;2023-05-13T10:47:09;9.45;;;4.75;;
71253;SDS011;59019;47.638;18.966;2023-05-13T10:49:35;7.40;;;4.77;;
71253;SDS011;59019;47.638;18.966;2023-05-13T10:52:04;9.27;;;5.40;;
71253;SDS011;59019;47.638;18.966;2023-05-13T10:54:37;10.73;;;5.18;;
71253;SDS011;59019;47.638;18.966;2023-05-13T10:57:06;8.85;;;5.13;;
71253;SDS011;59019;47.638;18.966;2023-05-13T10:59:34;9.33;;;5.20;;
71253;SDS011;59019;47.638;18.966;2023-05-13T11:02:01;9.25;;;4.55;;
71253;SDS011;59019;47.638;18.966;2023-05-13T11:04:59;7.97;;;4.90;;
71253;SDS011;59019;47.638;18.966;2023-05-13T11:07:28;8.40;;;4.50;;
71253;SDS011;59019;47.638;18.966;2023-05-13T11:09:53;7.47;;;4.85;;
71253;SDS011;59019;47.638;18.966;2023-05-13T11:12:19;8.73;;;4.93;;
71253;SDS011;59019;47.638;18.966;2023-05-13T11:14:45;9.20;;;4.97;;
71253;SDS011;59019;47.638;18.966;2023-05-13T11:17:11;8.70;;;5.10;;
71253;SDS011;59019;47.638;18.966;2023-05-13T11:19:38;8.48;;;5.18;;
71253;SDS011;59019;47.638;18.966;2023-05-13T11:22:13;8.23;;;4.50;;
71253;SDS011;59019;47.638;18.966;2023-05-13T11:27:27;7.60;;;4.88;;
71253;SDS011;59019;47.638;18.966;2023-05-13T11:30:02;8.35;;;4.70;;
71253;SDS011;59019;47.638;18.966;2023-05-13T11:35:24;11.43;;;6.57;;
71253;SDS011;59019;47.638;18.966;2023-05-13T11:37:51;10.77;;;6.63;;
71253;SDS011;59019;47.638;18.966;2023-05-13T11:42:56;7.10;;;4.55;;
71253;SDS011;59019;47.638;18.966;2023-05-13T11:45:23;10.02;;;5.85;;
71253;SDS011;59019;47.638;18.966;2023-05-13T11:47:49;8.87;;;5.00;;
71253;SDS011;59019;47.638;18.966;2023-05-13T11:50:17;7.22;;;4.63;;
71253;SDS011;59019;47.638;18.966;2023-05-13T11:52:43;7.85;;;4.65;;
71253;SDS011;59019;47.638;18.966;2023-05-13T11:55:09;6.85;;;4.90;;
71253;SDS011;59019;47.638;18.966;2023-05-13T11:57:35;7.50;;;4.87;;
71253;SDS011;59019;47.638;18.966;2023-05-13T12:00:01;7.80;;;4.70;;
71253;SDS011;59019;47.638;18.966;2023-05-13T12:02:29;8.85;;;4.95;;
71253;SDS011;59019;47.638;18.966;2023-05-13T12:04:59;7.10;;;4.95;;
71253;SDS011;59019;47.638;18.966;2023-05-13T12:07:28;9.48;;;4.50;;
71253;SDS011;59019;47.638;18.966;2023-05-13T12:09:55;8.53;;;5.13;;
71253;SDS011;59019;47.638;18.966;2023-05-13T12:12:22;6.88;;;4.70;;
71253;SDS011;59019;47.638;18.966;2023-05-13T12:14:48;7.25;;;4.72;;
71253;SDS011;59019;47.638;18.966;2023-05-13T12:17:18;8.13;;;5.00;;
71253;SDS011;59019;47.638;18.966;2023-05-13T12:22:32;9.45;;;4.72;;
71253;SDS011;59019;47.638;18.966;2023-05-13T12:24:58;6.88;;;4.53;;
71253;SDS011;59019;47.638;18.966;2023-05-13T12:27:26;8.25;;;5.32;;
71253;SDS011;59019;47.638;18.966;2023-05-13T12:29:55;9.30;;;5.57;;
71253;SDS011;59019;47.638;18.966;2023-05-13T12:32:22;8.68;;;5.43;;
71253;SDS011;59019;47.638;18.966;2023-05-13T12:34:49;8.48;;;5.20;;
71253;SDS011;59019;47.638;18.966;2023-05-13T12:37:16;9.50;;;5.13;;
71253;SDS011;59019;47.638;18.966;2023-05-13T12:39:42;10.43;;;5.20;;
71253;SDS011;59019;47.638;18.966;2023-05-13T12:42:14;8.37;;;5.23;;
71253;SDS011;59019;47.638;18.966;2023-05-13T12:44:42;7.45;;;4.85;;
71253;SDS011;59019;47.638;18.966;2023-05-13T12:47:08;8.75;;;4.80;;
71253;SDS011;59019;47.638;18.966;2023-05-13T12:49:49;13.48;;;7.75;;
71253;SDS011;59019;47.638;18.966;2023-05-13T12:52:16;10.80;;;6.70;;
71253;SDS011;59019;47.638;18.966;2023-05-13T12:54:42;11.20;;;6.68;;
71253;SDS011;59019;47.638;18.966;2023-05-13T12:57:08;10.23;;;5.47;;
71253;SDS011;59019;47.638;18.966;2023-05-13T12:59:34;9.75;;;5.97;;
71253;SDS011;59019;47.638;18.966;2023-05-13T13:01:59;20.10;;;10.63;;
71253;SDS011;59019;47.638;18.966;2023-05-13T13:04:24;14.07;;;7.00;;
71253;SDS011;59019;47.638;18.966;2023-05-13T13:06:50;10.93;;;6.53;;
71253;SDS011;59019;47.638;18.966;2023-05-13T13:09:16;18.80;;;7.97;;
71253;SDS011;59019;47.638;18.966;2023-05-13T13:11:41;13.03;;;6.73;;
71253;SDS011;59019;47.638;18.966;2023-05-13T13:14:07;18.90;;;9.20;;
71253;SDS011;59019;47.638;18.966;2023-05-13T13:16:32;11.50;;;6.40;;
71253;SDS011;59019;47.638;18.966;2023-05-13T13:18:58;10.27;;;5.40;;
71253;SDS011;59019;47.638;18.966;2023-05-13T13:21:24;10.07;;;5.68;;
71253;SDS011;59019;47.638;18.966;2023-05-13T13:23:49;9.53;;;5.70;;
71253;SDS011;59019;47.638;18.966;2023-05-13T13:26:15;9.83;;;5.07;;
71253;SDS011;59019;47.638;18.966;2023-05-13T13:28:40;8.98;;;5.53;;
71253;SDS011;59019;47.638;18.966;2023-05-13T13:31:06;9.77;;;5.60;;
71253;SDS011;59019;47.638;18.966;2023-05-13T13:33:32;9.95;;;5.07;;
71253;SDS011;59019;47.638;18.966;2023-05-13T13:35:57;9.50;;;5.17;;
71253;SDS011;59019;47.638;18.966;2023-05-13T13:38:23;9.23;;;5.33;;
71253;SDS011;59019;47.638;18.966;2023-05-13T13:40:48;11.23;;;5.75;;
71253;SDS011;59019;47.638;18.966;2023-05-13T13:43:14;9.95;;;5.78;;
71253;SDS011;59019;47.638;18.966;2023-05-13T13:45:39;11.80;;;6.10;;
71253;SDS011;59019;47.638;18.966;2023-05-13T13:48:05;11.05;;;5.70;;
71253;SDS011;59019;47.638;18.966;2023-05-13T13:50:30;10.05;;;5.55;;
71253;SDS011;59019;47.638;18.966;2023-05-13T13:52:56;8.33;;;4.70;;
71253;SDS011;59019;47.638;18.966;2023-05-13T13:55:22;9.85;;;5.05;;
71253;SDS011;59019;47.638;18.966;2023-05-13T13:57:48;10.82;;;5.40;;
71253;SDS011;59019;47.638;18.966;2023-05-13T14:00:15;10.15;;;5.50;;
71253;SDS011;59019;47.638;18.966;2023-05-13T14:02:41;11.57;;;5.65;;
71253;SDS011;59019;47.638;18.966;2023-05-13T14:05:08;10.80;;;5.40;;
71253;SDS011;59019;47.638;18.966;2023-05-13T14:07:34;9.10;;;4.90;;
71253;SDS011;59019;47.638;18.966;2023-05-13T14:10:01;8.43;;;4.78;;
71253;SDS011;59019;47.638;18.966;2023-05-13T14:12:27;11.32;;;5.32;;
71253;SDS011;59019;47.638;18.966;2023-05-13T14:14:52;9.33;;;5.27;;
71253;SDS011;59019;47.638;18.966;2023-05-13T14:17:18;12.53;;;6.27;;
71253;SDS011;59019;47.638;18.966;2023-05-13T14:19:44;11.80;;;6.05;;
71253;SDS011;59019;47.638;18.966;2023-05-13T14:22:09;10.80;;;5.75;;
71253;SDS011;59019;47.638;18.966;2023-05-13T14:24:35;10.30;;;5.20;;
71253;SDS011;59019;47.638;18.966;2023-05-13T14:27:00;12.80;;;5.60;;
71253;SDS011;59019;47.638;18.966;2023-05-13T14:29:26;11.50;;;5.00;;
71253;SDS011;59019;47.638;18.966;2023-05-13T14:31:51;8.32;;;4.88;;
71253;SDS011;59019;47.638;18.966;2023-05-13T14:34:17;7.13;;;4.37;;
71253;SDS011;59019;47.638;18.966;2023-05-13T14:36:43;8.93;;;4.88;;
71253;SDS011;59019;47.638;18.966;2023-05-13T14:39:08;8.90;;;4.63;;
71253;SDS011;59019;47.638;18.966;2023-05-13T14:41:35;7.78;;;4.75;;
71253;SDS011;59019;47.638;18.966;2023-05-13T14:44:01;7.90;;;4.53;;
71253;SDS011;59019;47.638;18.966;2023-05-13T14:46:26;17.98;;;7.57;;
71253;SDS011;59019;47.638;18.966;2023-05-13T14:48:52;10.63;;;5.57;;
71253;SDS011;59019;47.638;18.966;2023-05-13T14:51:18;9.73;;;4.30;;
71253;SDS011;59019;47.638;18.966;2023-05-13T14:53:43;7.40;;;4.07;;